createdAt,value
2022-10-02T00:04:02.811Z,15.3
2022-10-02T00:09:02.989Z,15.2
2022-10-02T00:14:03.132Z,15.2
2022-10-02T00:19:03.328Z,15.3
2022-10-02T00:24:03.536Z,15.3
2022-10-02T00:34:03.898Z,15.2
2022-10-02T00:39:04.061Z,15.2
2022-10-02T00:44:04.255Z,15.2
2022-10-02T00:49:08.446Z,15.1
2022-10-02T00:54:04.645Z,15.1
2022-10-02T01:04:05.066Z,15.1
2022-10-02T01:14:05.493Z,15.2
2022-10-02T01:34:06.285Z,15.1
2022-10-02T01:39:06.451Z,15.2
2022-10-02T01:44:06.644Z,15.2
2022-10-02T01:49:09.329Z,15.2
2022-10-02T01:54:07.014Z,15.2
2022-10-02T01:59:07.235Z,15.1
2022-10-02T02:04:07.454Z,15.2
2022-10-02T02:09:07.589Z,15.2
2022-10-02T02:14:07.728Z,15.2
2022-10-02T02:19:07.915Z,15.2
2022-10-02T02:29:08.242Z,15.3
2022-10-02T02:34:10.474Z,15.3
2022-10-02T02:39:08.661Z,15.3
2022-10-02T02:44:10.899Z,15.3
2022-10-02T02:54:09.256Z,15.3
2022-10-02T02:59:09.404Z,15.2
2022-10-02T03:04:09.588Z,15.3
2022-10-02T03:09:09.785Z,15.2
2022-10-02T03:14:09.961Z,15.2
2022-10-02T03:19:10.195Z,15.2
2022-10-02T03:24:10.420Z,15.2
2022-10-02T03:29:10.602Z,15.2
2022-10-02T03:34:10.799Z,15.2
2022-10-02T03:39:24.614Z,15.2
2022-10-02T03:44:13.298Z,15.2
2022-10-02T03:49:11.381Z,15.2
2022-10-02T03:54:11.606Z,15.1
2022-10-02T03:59:11.877Z,15.1
2022-10-02T04:04:11.973Z,15.1
2022-10-02T04:09:14.623Z,15.1
2022-10-02T04:14:12.293Z,15.1
2022-10-02T04:19:12.450Z,15.1
2022-10-02T04:24:12.661Z,15.1
2022-10-02T04:34:12.995Z,15.0
2022-10-02T04:39:13.178Z,15.0
2022-10-02T04:44:13.373Z,14.9
2022-10-02T04:49:13.563Z,15.0
2022-10-02T04:54:13.759Z,14.9
2022-10-02T04:59:16.433Z,14.9
2022-10-02T05:04:14.103Z,14.9
2022-10-02T05:09:14.246Z,14.8
2022-10-02T05:14:14.489Z,14.7
2022-10-02T05:19:14.592Z,14.6
2022-10-02T05:24:14.775Z,14.8
2022-10-02T05:29:14.944Z,14.7
2022-10-02T05:34:15.093Z,14.6
2022-10-02T05:39:15.284Z,14.6
2022-10-02T05:44:15.440Z,14.6
2022-10-02T05:49:15.602Z,14.5
2022-10-02T05:54:15.778Z,14.5
2022-10-02T05:59:15.925Z,14.6
2022-10-02T06:04:16.136Z,14.6
2022-10-02T06:14:16.488Z,14.6
2022-10-02T06:24:16.880Z,14.7
2022-10-02T06:29:19.818Z,14.7
2022-10-02T06:34:17.190Z,14.7
2022-10-02T06:39:17.366Z,14.8
2022-10-02T06:44:17.514Z,14.8
2022-10-02T06:49:17.733Z,14.8
2022-10-02T06:54:20.479Z,14.9
2022-10-02T06:59:20.005Z,14.9
2022-10-02T07:04:20.687Z,14.9
2022-10-02T07:09:18.398Z,14.9
2022-10-02T07:14:18.506Z,14.9
2022-10-02T07:19:18.659Z,15.1
2022-10-02T07:24:18.837Z,15.1
2022-10-02T07:29:18.992Z,14.9
2022-10-02T07:34:19.170Z,14.7
2022-10-02T07:39:19.291Z,14.6
2022-10-02T07:44:19.399Z,14.6
2022-10-02T07:54:22.262Z,14.4
2022-10-02T07:59:20.007Z,14.3
2022-10-02T08:04:20.056Z,14.2
2022-10-02T08:09:20.221Z,14.2
2022-10-02T08:14:20.353Z,14.0
2022-10-02T08:19:20.524Z,13.9
2022-10-02T08:24:20.702Z,13.8
2022-10-02T08:29:20.805Z,13.6
2022-10-02T08:34:20.967Z,13.7
2022-10-02T08:39:21.136Z,13.8
2022-10-02T08:44:21.210Z,13.7
2022-10-02T08:49:21.321Z,13.8
2022-10-02T08:54:21.468Z,14.0
2022-10-02T08:59:21.687Z,14.1
2022-10-02T09:04:21.883Z,14.0
2022-10-02T09:09:21.934Z,14.2
2022-10-02T09:14:22.054Z,14.2
2022-10-02T09:19:24.185Z,14.2
2022-10-02T09:24:24.829Z,14.3
2022-10-02T09:29:22.495Z,14.3
2022-10-02T09:34:24.707Z,14.6
2022-10-02T09:39:22.759Z,14.7
2022-10-02T09:44:22.956Z,14.8
2022-10-02T09:49:23.160Z,14.8
2022-10-02T09:54:23.358Z,15.0
2022-10-02T09:59:25.462Z,15.3
2022-10-02T10:04:23.589Z,15.4
2022-10-02T10:09:23.785Z,15.5
2022-10-02T10:14:24.052Z,15.3
2022-10-02T10:19:24.588Z,15.6
2022-10-02T10:24:24.388Z,16.1
2022-10-02T10:29:24.541Z,16.1
2022-10-02T10:34:24.762Z,16.4
2022-10-02T10:39:24.930Z,17.1
2022-10-02T10:44:25.159Z,17.3
2022-10-02T10:49:25.387Z,17.5
2022-10-02T10:54:25.648Z,17.4
2022-10-02T10:59:25.895Z,16.8
2022-10-02T11:04:26.201Z,16.6
2022-10-02T11:09:26.359Z,16.7
2022-10-02T11:14:26.597Z,16.6
2022-10-02T11:19:26.839Z,16.7
2022-10-02T11:29:27.271Z,16.9
2022-10-02T11:34:27.500Z,16.9
2022-10-02T11:39:27.723Z,16.9
2022-10-02T11:44:27.913Z,16.8
2022-10-02T11:49:28.085Z,16.8
2022-10-02T11:54:28.269Z,16.9
2022-10-02T11:59:32.465Z,16.9
2022-10-02T12:04:28.759Z,17.1
2022-10-02T12:09:28.827Z,16.9
2022-10-02T12:14:29.057Z,16.9
2022-10-02T12:19:29.269Z,17.0
2022-10-02T12:29:29.592Z,17.3
2022-10-02T12:34:29.834Z,17.6
2022-10-02T12:39:31.075Z,17.9
2022-10-02T12:44:30.295Z,17.9
2022-10-02T12:49:30.510Z,17.8
2022-10-02T12:54:30.816Z,18.1
2022-10-02T13:04:31.310Z,18.0
2022-10-02T13:09:31.593Z,18.2
2022-10-02T13:19:32.195Z,18.8
2022-10-02T13:24:32.558Z,18.8
2022-10-02T13:29:32.729Z,19.1
2022-10-02T13:34:38.178Z,19.3
2022-10-02T13:39:33.453Z,18.9
2022-10-02T13:49:34.189Z,18.8
2022-10-02T13:54:34.473Z,18.8
2022-10-02T13:59:34.800Z,19.2
2022-10-02T14:04:35.216Z,19.8
2022-10-02T14:09:35.578Z,19.9
2022-10-02T14:14:35.867Z,19.6
2022-10-02T14:24:36.506Z,18.9
2022-10-02T14:29:36.819Z,18.8
2022-10-02T14:34:37.126Z,18.7
2022-10-02T14:39:37.477Z,18.4
2022-10-02T14:49:38.421Z,18.8
2022-10-02T14:54:38.457Z,18.9
2022-10-02T15:09:39.441Z,19.0
2022-10-02T15:14:39.834Z,19.0
2022-10-02T15:19:40.128Z,19.1
2022-10-02T15:24:40.568Z,19.3
2022-10-02T15:29:40.898Z,19.4
2022-10-02T15:34:41.338Z,19.4
2022-10-02T15:39:41.552Z,19.0
2022-10-02T15:44:41.925Z,18.7
2022-10-02T15:49:42.304Z,18.6
2022-10-02T15:54:42.612Z,18.4
2022-10-02T15:59:42.923Z,18.4
2022-10-02T16:04:44.135Z,18.5
2022-10-02T16:14:43.939Z,18.4
2022-10-02T16:19:44.243Z,18.2
2022-10-02T16:24:44.603Z,18.1
2022-10-02T16:29:47.143Z,17.9
2022-10-02T16:39:45.562Z,17.8
2022-10-02T16:44:45.975Z,17.6
2022-10-02T16:49:46.255Z,17.4
2022-10-02T16:54:48.590Z,17.4
2022-10-02T16:59:48.894Z,17.2
2022-10-02T17:04:47.232Z,17.1
2022-10-02T17:19:48.047Z,16.5
2022-10-02T17:24:48.353Z,16.2
2022-10-02T17:29:48.619Z,16.1
2022-10-02T17:39:49.117Z,15.7
2022-10-02T17:44:49.445Z,15.5
2022-10-02T17:49:51.579Z,15.4
2022-10-02T17:54:50.014Z,15.2
2022-10-02T17:59:50.133Z,15.1
2022-10-02T18:04:50.208Z,15.0
2022-10-02T18:09:50.392Z,14.9
2022-10-02T18:14:50.601Z,14.8
2022-10-02T18:19:50.769Z,14.7
2022-10-02T18:24:50.940Z,14.6
2022-10-02T18:29:51.886Z,14.6
2022-10-02T18:34:51.294Z,14.6
2022-10-02T18:39:51.457Z,14.6
2022-10-02T18:44:51.694Z,14.7
2022-10-02T18:49:54.362Z,14.7
2022-10-02T18:54:52.014Z,14.8
2022-10-02T18:59:52.181Z,14.7
2022-10-02T19:04:52.382Z,14.6
2022-10-02T19:09:52.585Z,14.7
2022-10-02T19:14:52.739Z,14.8
2022-10-02T19:19:52.941Z,14.7
2022-10-02T19:24:53.117Z,14.6
2022-10-02T19:29:53.811Z,14.7
2022-10-02T19:34:53.529Z,14.8
2022-10-02T19:39:55.711Z,14.8
2022-10-02T19:44:53.928Z,14.7
2022-10-02T19:49:54.708Z,14.7
2022-10-02T19:54:54.300Z,14.7
2022-10-02T19:59:54.513Z,14.6
2022-10-02T20:04:54.688Z,14.6
2022-10-02T20:09:54.918Z,14.6
2022-10-02T20:14:57.112Z,14.5
2022-10-02T20:19:57.273Z,14.4
2022-10-02T20:24:55.463Z,14.3
2022-10-02T20:29:55.687Z,14.2
2022-10-02T20:34:59.923Z,14.1
2022-10-02T20:44:56.256Z,14.0
2022-10-02T20:49:56.457Z,14.0
2022-10-02T20:54:56.611Z,13.9
2022-10-02T20:59:56.778Z,13.8
2022-10-02T21:04:57.036Z,13.8
2022-10-02T21:09:57.116Z,13.8
2022-10-02T21:14:57.246Z,13.8
2022-10-02T21:19:57.411Z,13.8
2022-10-02T21:24:59.568Z,13.7
2022-10-02T21:29:58.125Z,13.5
2022-10-02T21:34:57.855Z,13.5
2022-10-02T21:40:00.519Z,13.3
2022-10-02T21:45:00.347Z,13.1
2022-10-02T21:49:58.360Z,13.0
2022-10-02T21:54:58.460Z,12.9
2022-10-02T21:59:58.556Z,12.8
2022-10-02T22:04:58.674Z,12.6
2022-10-02T22:09:58.841Z,12.5
2022-10-02T22:15:01.431Z,12.4
2022-10-02T22:24:59.145Z,12.1
2022-10-02T22:29:59.215Z,12.1
2022-10-02T22:34:59.334Z,11.9
2022-10-02T22:39:59.414Z,11.8
2022-10-02T22:44:59.568Z,11.8
2022-10-02T22:49:59.546Z,11.6
2022-10-02T22:54:59.632Z,11.4
2022-10-02T22:59:59.818Z,11.2
2022-10-02T23:04:59.687Z,11.2
2022-10-02T23:09:59.783Z,11.1
2022-10-02T23:14:59.847Z,11.1
2022-10-02T23:19:59.952Z,11.1
2022-10-02T23:25:02.297Z,11.0
2022-10-02T23:30:01.948Z,10.9
2022-10-02T23:35:00.008Z,10.9
2022-10-02T23:40:00.060Z,10.7
2022-10-02T23:45:02.080Z,10.6
2022-10-02T23:50:00.151Z,10.5
2022-10-02T23:55:00.055Z,10.5
